Time;durP1;ratioP1;P1;durP2;ratioP2;P2;SDS_P1;SDS_P2;PMS_P1;PMS_P2;Temp;Humidity;BMP_temperature;BMP_pressure;BME280_temperature;BME280_humidity;BME280_pressure;Samples;Min_cycle;Max_cycle;Signal;HPM_P1;HPM_P2
2022/06/02 00:01:05;;;;;;;;;;;24.90;41.80;;;;;;1576062;73;781;-70
2022/06/02 00:03:11;;;;;;;;;;;25.00;41.80;;;;;;1560810;74;2402;-70
2022/06/02 00:05:21;;;;;;;;;;;24.90;41.80;;;;;;1564743;74;1087;-69
2022/06/02 00:07:30;;;;;;;;;;;25.00;41.70;;;;;;1570803;73;1553;-71
2022/06/02 00:09:48;;;;;;;;;;;24.90;41.80;;;;;;1581867;73;1905;-70
2022/06/02 00:11:51;;;;;;;;;;;24.80;41.80;;;;;;1614728;72;753;-67
2022/06/02 00:13:58;;;;;;;;;;;24.90;41.80;;;;;;1608836;72;812;-68
2022/06/02 00:16:01;;;;;;;;;;;24.90;41.80;;;;;;1596010;72;1140;-67
2022/06/02 00:18:07;;;;;;;;;;;25.00;41.80;;;;;;1608248;72;743;-66
2022/06/02 00:20:11;;;;;;;;;;;25.00;41.80;;;;;;1612929;72;884;-67
2022/06/02 00:22:17;;;;;;;;;;;24.90;41.80;;;;;;1609654;72;1918;-68
2022/06/02 00:24:27;;;;;;;;;;;24.90;41.80;;;;;;1616393;72;702;-68
2022/06/02 00:26:44;;;;;;;;;;;24.90;41.80;;;;;;1607696;72;1707;-67
2022/06/02 00:28:43;;;;;;;;;;;24.80;41.70;;;;;;1618326;72;1905;-66
2022/06/02 00:30:56;;;;;;;;;;;24.90;41.80;;;;;;1621307;72;706;-68
2022/06/02 00:33:18;;;;;;;;;;;24.90;41.80;;;;;;1602913;72;745;-69
2022/06/02 00:35:21;;;;;;;;;;;24.80;41.80;;;;;;1596647;72;2042;-66
2022/06/02 00:37:30;;;;;;;;;;;24.90;42.00;;;;;;1509838;78;1968;-66
2022/06/02 00:39:33;;;;;;;;;;;24.80;41.90;;;;;;1470853;80;639;-66
2022/06/02 00:41:36;;;;;;;;;;;24.80;41.80;;;;;;1488996;79;707;-66
2022/06/02 00:43:40;;;;;;;;;;;24.90;42.00;;;;;;1462987;80;1630;-65
2022/06/02 00:45:42;;;;;;;;;;;24.80;41.80;;;;;;1473169;80;1622;-65
2022/06/02 00:48:03;;;;;;;;;;;24.80;41.80;;;;;;1494410;78;772;-66
2022/06/02 00:50:12;;;;;;;;;;;24.80;41.80;;;;;;1456279;80;1932;-66
2022/06/02 00:52:16;;;;;;;;;;;24.90;41.90;;;;;;1472357;79;1067;-66
2022/06/02 00:59:23;;;;;;;;;;;24.90;41.90;;;;;;1488688;78;654;-66
2022/06/02 01:01:26;;;;;;;;;;;24.80;41.90;;;;;;1489864;78;1159;-65
2022/06/02 01:03:30;;;;;;;;;;;24.80;41.80;;;;;;1482927;78;1365;-65
2022/06/02 01:05:33;;;;;;;;;;;24.90;42.00;;;;;;1462418;79;1760;-65
2022/06/02 01:07:37;;;;;;;;;;;24.90;42.00;;;;;;1456141;80;680;-66
2022/06/02 01:09:40;;;;;;;;;;;24.80;41.80;;;;;;1490750;78;1924;-66
2022/06/02 01:11:44;;;;;;;;;;;24.80;41.90;;;;;;1504027;78;764;-66
2022/06/02 01:13:48;;;;;;;;;;;24.90;42.00;;;;;;1512464;78;730;-66
2022/06/02 01:15:54;;;;;;;;;;;24.90;42.00;;;;;;1505473;78;1146;-66
2022/06/02 01:18:16;;;;;;;;;;;24.90;42.00;;;;;;1497243;78;1699;-66
2022/06/02 01:20:35;;;;;;;;;;;24.90;42.00;;;;;;1509374;78;685;-65
2022/06/02 01:22:59;;;;;;;;;;;24.90;42.00;;;;;;1495793;78;1704;-66
2022/06/02 01:25:00;;;;;;;;;;;24.90;42.00;;;;;;1484843;78;1247;-65
2022/06/02 01:27:10;;;;;;;;;;;24.80;42.00;;;;;;1494670;78;783;-66
2022/06/02 01:29:28;;;;;;;;;;;24.80;41.90;;;;;;1502944;78;1957;-66
2022/06/02 01:31:43;;;;;;;;;;;24.80;41.90;;;;;;1502417;78;1140;-66
2022/06/02 01:33:49;;;;;;;;;;;24.80;41.90;;;;;;1491399;78;784;-66
2022/06/02 01:35:53;;;;;;;;;;;24.80;41.90;;;;;;1505051;77;1170;-64
2022/06/02 01:38:08;;;;;;;;;;;24.80;41.90;;;;;;1515863;77;741;-63
2022/06/02 01:40:24;;;;;;;;;;;24.90;42.10;;;;;;1511886;77;2052;-64
2022/06/02 01:42:37;;;;;;;;;;;24.80;42.00;;;;;;1513560;77;1915;-65
2022/06/02 01:44:43;;;;;;;;;;;24.80;42.00;;;;;;1503551;77;707;-65
2022/06/02 01:46:46;;;;;;;;;;;24.80;42.00;;;;;;1493581;77;1143;-64
2022/06/02 01:49:08;;;;;;;;;;;24.90;42.00;;;;;;1504869;77;1934;-64
2022/06/02 01:51:17;;;;;;;;;;;24.80;42.00;;;;;;1524722;77;1667;-65
2022/06/02 01:53:33;;;;;;;;;;;24.80;42.00;;;;;;1507432;77;755;-65
2022/06/02 01:55:42;;;;;;;;;;;24.80;42.00;;;;;;1505005;77;2068;-65
2022/06/02 01:57:49;;;;;;;;;;;24.80;42.10;;;;;;1496934;77;734;-65
2022/06/02 02:00:08;;;;;;;;;;;24.80;42.10;;;;;;1505082;77;1582;-66
2022/06/02 02:02:18;;;;;;;;;;;24.80;42.00;;;;;;1506273;77;673;-65
2022/06/02 02:04:27;;;;;;;;;;;24.80;42.00;;;;;;1518522;77;584;-64
2022/06/02 02:06:34;;;;;;;;;;;24.80;42.10;;;;;;1501316;77;2113;-66
2022/06/02 02:08:43;;;;;;;;;;;24.80;42.00;;;;;;1518147;77;618;-65
2022/06/02 02:10:50;;;;;;;;;;;24.80;42.10;;;;;;1506637;77;1991;-65
2022/06/02 02:13:05;;;;;;;;;;;24.80;42.00;;;;;;1498507;77;763;-66
2022/06/02 02:15:15;;;;;;;;;;;24.80;42.00;;;;;;1505251;77;1119;-64
2022/06/02 02:17:24;;;;;;;;;;;24.80;42.10;;;;;;1519367;77;655;-65
2022/06/02 02:19:46;;;;;;;;;;;24.80;42.10;;;;;;1505714;77;1657;-65
2022/06/02 02:22:06;;;;;;;;;;;24.80;42.10;;;;;;1507126;77;695;-63
2022/06/02 02:24:09;;;;;;;;;;;24.80;42.10;;;;;;1516364;77;685;-65
2022/06/02 02:26:15;;;;;;;;;;;24.80;42.10;;;;;;1506956;77;1604;-65
2022/06/02 02:28:19;;;;;;;;;;;24.70;42.10;;;;;;1497766;77;753;-65
2022/06/02 02:30:23;;;;;;;;;;;24.80;42.10;;;;;;1496527;77;1953;-64
2022/06/02 02:32:35;;;;;;;;;;;24.80;42.10;;;;;;1499529;77;751;-64
2022/06/02 02:34:43;;;;;;;;;;;24.80;42.10;;;;;;1513501;77;1938;-64
2022/06/02 02:37:05;;;;;;;;;;;24.80;42.10;;;;;;1501291;77;1127;-64
2022/06/02 02:39:08;;;;;;;;;;;24.80;42.10;;;;;;1503254;77;685;-64
2022/06/02 02:41:12;;;;;;;;;;;24.80;42.10;;;;;;1514918;77;735;-65
2022/06/02 02:43:18;;;;;;;;;;;24.80;42.10;;;;;;1505996;77;792;-64
2022/06/02 02:45:27;;;;;;;;;;;24.80;42.10;;;;;;1515787;77;1163;-64
2022/06/02 02:47:42;;;;;;;;;;;24.80;42.10;;;;;;1505657;77;759;-65
2022/06/02 02:49:50;;;;;;;;;;;24.80;42.10;;;;;;1499955;77;1922;-64
2022/06/02 02:52:00;;;;;;;;;;;24.80;42.10;;;;;;1498400;77;656;-64
2022/06/02 02:54:03;;;;;;;;;;;24.80;42.10;;;;;;1501235;77;1076;-65
2022/06/02 02:56:25;;;;;;;;;;;24.90;42.30;;;;;;1497333;77;1772;-63
2022/06/02 02:58:41;;;;;;;;;;;24.90;42.30;;;;;;1511469;77;1851;-64
2022/06/02 03:00:59;;;;;;;;;;;24.80;42.30;;;;;;1519433;77;1774;-64
2022/06/02 03:03:11;;;;;;;;;;;24.80;42.30;;;;;;1515341;77;1596;-65
2022/06/02 03:05:20;;;;;;;;;;;24.80;42.30;;;;;;1517214;77;1202;-65
2022/06/02 03:07:22;;;;;;;;;;;24.80;42.40;;;;;;1503628;77;802;-65
2022/06/02 03:09:34;;;;;;;;;;;24.80;42.40;;;;;;1510930;77;1919;-64
2022/06/02 03:11:56;;;;;;;;;;;24.80;42.40;;;;;;1506014;77;680;-62
2022/06/02 03:14:15;;;;;;;;;;;24.90;42.50;;;;;;1502342;77;739;-64
2022/06/02 03:16:17;;;;;;;;;;;24.90;42.30;;;;;;1515074;77;1135;-66
2022/06/02 03:18:37;;;;;;;;;;;24.90;42.30;;;;;;1517418;77;760;-66
2022/06/02 03:20:41;;;;;;;;;;;25.00;42.30;;;;;;1519595;77;679;-64
2022/06/02 03:22:56;;;;;;;;;;;25.00;42.20;;;;;;1511041;77;770;-64
2022/06/02 03:25:03;;;;;;;;;;;25.00;42.10;;;;;;1503929;77;1168;-63
2022/06/02 03:27:09;;;;;;;;;;;24.90;42.30;;;;;;1504164;77;1635;-64
2022/06/02 03:29:25;;;;;;;;;;;25.00;42.30;;;;;;1507045;77;1937;-65
2022/06/02 03:31:29;;;;;;;;;;;24.90;42.30;;;;;;1510062;77;1780;-65
2022/06/02 03:33:44;;;;;;;;;;;24.90;42.30;;;;;;1508470;77;673;-65
2022/06/02 03:35:54;;;;;;;;;;;24.90;42.40;;;;;;1512142;77;1177;-63
2022/06/02 03:38:14;;;;;;;;;;;24.90;42.40;;;;;;1509611;77;804;-64
2022/06/02 03:40:23;;;;;;;;;;;24.90;43.00;;;;;;1513032;77;673;-65
2022/06/02 03:42:27;;;;;;;;;;;24.90;42.30;;;;;;1502925;77;1933;-65
2022/06/02 03:44:33;;;;;;;;;;;24.90;42.40;;;;;;1467583;79;1057;-65
2022/06/02 03:46:42;;;;;;;;;;;24.90;42.40;;;;;;1495800;77;1903;-65
2022/06/02 03:48:55;;;;;;;;;;;24.90;42.40;;;;;;1499135;77;2090;-64
2022/06/02 03:51:17;;;;;;;;;;;24.90;42.40;;;;;;1510508;77;1932;-65
2022/06/02 03:53:21;;;;;;;;;;;24.90;42.30;;;;;;1497603;77;676;-65
2022/06/02 03:55:36;;;;;;;;;;;24.80;42.60;;;;;;1499963;77;1138;-66
2022/06/02 03:57:56;;;;;;;;;;;24.90;42.60;;;;;;1507149;77;665;-66
2022/06/02 04:00:07;;;;;;;;;;;24.80;42.50;;;;;;1503567;77;565;-65
2022/06/02 04:02:09;;;;;;;;;;;24.80;42.60;;;;;;1465818;80;1245;-65
2022/06/02 04:04:29;;;;;;;;;;;24.80;42.50;;;;;;1452993;80;664;-65
2022/06/02 04:06:33;;;;;;;;;;;24.80;42.50;;;;;;1492162;78;1180;-66
2022/06/02 04:08:53;;;;;;;;;;;24.90;42.60;;;;;;1469123;80;1640;-66
2022/06/02 04:10:56;;;;;;;;;;;24.80;42.50;;;;;;1464421;80;1910;-66
2022/06/02 04:15:37;;;;;;;;;;;24.80;42.60;;;;;;1483857;79;1703;-64
2022/06/02 04:17:50;;;;;;;;;;;24.70;42.60;;;;;;1482083;78;813;-66
2022/06/02 04:22:18;;;;;;;;;;;24.80;42.60;;;;;;1474779;78;1711;-65
2022/06/02 04:24:21;;;;;;;;;;;24.80;42.60;;;;;;1484075;78;753;-66
2022/06/02 04:26:41;;;;;;;;;;;24.80;42.80;;;;;;1494545;78;1160;-71
2022/06/02 04:28:44;;;;;;;;;;;24.80;43.00;;;;;;1487175;78;760;-66
2022/06/02 04:31:04;;;;;;;;;;;24.90;42.80;;;;;;1483718;78;1962;-66
2022/06/02 04:33:08;;;;;;;;;;;24.80;42.60;;;;;;1472047;78;785;-64
2022/06/02 04:35:28;;;;;;;;;;;24.80;42.60;;;;;;1490887;78;1137;-66
2022/06/02 04:37:41;;;;;;;;;;;24.80;42.70;;;;;;1475017;78;1126;-66
2022/06/02 04:39:59;;;;;;;;;;;24.80;42.80;;;;;;1486954;78;753;-66
2022/06/02 04:42:18;;;;;;;;;;;24.70;42.80;;;;;;1476548;78;1133;-67
2022/06/02 04:44:37;;;;;;;;;;;24.70;42.70;;;;;;1482702;78;1895;-66
2022/06/02 04:46:49;;;;;;;;;;;24.70;42.80;;;;;;1445058;80;1176;-66
2022/06/02 04:48:58;;;;;;;;;;;24.70;42.80;;;;;;1466214;78;2126;-65
2022/06/02 04:51:02;;;;;;;;;;;24.60;42.80;;;;;;1476585;78;1922;-66
2022/06/02 04:53:05;;;;;;;;;;;24.60;42.80;;;;;;1471414;78;1668;-67
2022/06/02 04:55:09;;;;;;;;;;;24.60;42.80;;;;;;1482299;77;2189;-68
2022/06/02 04:57:12;;;;;;;;;;;24.60;42.80;;;;;;1485927;78;1117;-66
2022/06/02 04:59:34;;;;;;;;;;;24.60;42.80;;;;;;1482665;79;1783;-67
2022/06/02 05:01:53;;;;;;;;;;;24.60;42.80;;;;;;1486611;78;1961;-65
2022/06/02 05:03:57;;;;;;;;;;;24.50;42.80;;;;;;1478770;78;1073;-69
2022/06/02 05:06:00;;;;;;;;;;;24.50;42.90;;;;;;1480825;78;1188;-68
2022/06/02 05:08:06;;;;;;;;;;;24.60;42.90;;;;;;1491673;78;683;-65
2022/06/02 05:10:25;;;;;;;;;;;24.60;43.00;;;;;;1496829;78;1941;-66
2022/06/02 05:12:44;;;;;;;;;;;24.60;43.10;;;;;;1485646;78;701;-67
2022/06/02 05:14:48;;;;;;;;;;;24.70;43.40;;;;;;1463178;80;1045;-66
2022/06/02 05:16:57;;;;;;;;;;;24.70;43.30;;;;;;1444017;80;1155;-68
2022/06/02 05:19:04;;;;;;;;;;;24.70;43.40;;;;;;1472922;80;714;-68
2022/06/02 05:21:26;;;;;;;;;;;24.70;43.60;;;;;;1489982;78;630;-66
2022/06/02 05:23:30;;;;;;;;;;;24.80;43.60;;;;;;1491951;78;701;-65
2022/06/02 05:25:39;;;;;;;;;;;24.80;42.90;;;;;;1487263;78;1114;-66
2022/06/02 05:27:59;;;;;;;;;;;24.80;42.70;;;;;;1482432;78;724;-66
2022/06/02 05:30:03;;;;;;;;;;;24.70;42.70;;;;;;1480501;78;1923;-66
2022/06/02 05:32:12;;;;;;;;;;;24.70;42.70;;;;;;1482788;78;712;-66
2022/06/02 05:34:28;;;;;;;;;;;24.70;42.80;;;;;;1481819;78;2014;-67
2022/06/02 05:36:37;;;;;;;;;;;24.70;42.70;;;;;;1481050;78;1137;-66
2022/06/02 05:38:41;;;;;;;;;;;24.60;42.40;;;;;;1481683;78;1681;-66
2022/06/02 05:40:53;;;;;;;;;;;24.70;42.60;;;;;;1480799;78;626;-66
2022/06/02 05:42:59;;;;;;;;;;;24.60;42.40;;;;;;1448006;80;1728;-66
2022/06/02 05:45:03;;;;;;;;;;;24.60;42.40;;;;;;1471938;80;1898;-65
2022/06/02 05:47:07;;;;;;;;;;;24.50;42.40;;;;;;1471088;78;831;-68
2022/06/02 05:49:16;;;;;;;;;;;24.60;42.40;;;;;;1462944;80;1941;-66
2022/06/02 05:51:29;;;;;;;;;;;24.70;42.60;;;;;;1460323;80;1940;-66
2022/06/02 05:53:38;;;;;;;;;;;24.60;42.60;;;;;;1478295;78;749;-66
2022/06/02 05:55:54;;;;;;;;;;;24.70;42.80;;;;;;1480914;79;1159;-66
2022/06/02 05:58:04;;;;;;;;;;;24.60;42.70;;;;;;1473570;78;674;-66
2022/06/02 06:00:26;;;;;;;;;;;24.60;42.80;;;;;;1485267;78;1230;-66
2022/06/02 06:02:38;;;;;;;;;;;24.70;42.90;;;;;;1501214;78;1950;-67
2022/06/02 06:04:41;;;;;;;;;;;24.70;42.60;;;;;;1481349;78;728;-67
2022/06/02 06:06:44;;;;;;;;;;;24.80;42.30;;;;;;1487892;78;1156;-65
2022/06/02 06:08:47;;;;;;;;;;;24.80;42.10;;;;;;1456397;80;780;-65
2022/06/02 06:10:57;;;;;;;;;;;24.80;42.10;;;;;;1485837;78;1947;-66
2022/06/02 06:13:00;;;;;;;;;;;24.90;42.10;;;;;;1454061;80;1979;-66
2022/06/02 06:15:09;;;;;;;;;;;24.90;41.80;;;;;;1457841;80;1165;-67
2022/06/02 06:17:13;;;;;;;;;;;24.90;41.90;;;;;;1456854;80;717;-67
2022/06/02 06:19:33;;;;;;;;;;;24.90;41.80;;;;;;1478299;79;744;-67
2022/06/02 06:21:36;;;;;;;;;;;25.00;41.70;;;;;;1472897;79;707;-66
2022/06/02 06:23:41;;;;;;;;;;;25.00;41.60;;;;;;1482730;79;1014;-66
2022/06/02 06:25:47;;;;;;;;;;;25.10;41.50;;;;;;1477609;78;1172;-65
2022/06/02 06:28:12;;;;;;;;;;;25.30;41.40;;;;;;1470147;78;1936;-65
2022/06/02 06:30:30;;;;;;;;;;;25.20;41.30;;;;;;1436146;81;1931;-65
2022/06/02 06:32:34;;;;;;;;;;;25.30;41.20;;;;;;1432994;81;783;-66
2022/06/02 06:34:37;;;;;;;;;;;25.30;41.10;;;;;;1436201;81;2234;-66
2022/06/02 06:36:41;;;;;;;;;;;25.30;41.10;;;;;;1499622;76;2109;-70
2022/06/02 06:38:45;;;;;;;;;;;25.30;40.80;;;;;;1522948;76;689;-71
2022/06/02 06:40:49;;;;;;;;;;;25.30;40.60;;;;;;1521062;76;1469;-71
2022/06/02 06:42:58;;;;;;;;;;;25.40;40.60;;;;;;1517633;77;656;-70
2022/06/02 06:45:10;;;;;;;;;;;25.50;40.50;;;;;;1515965;77;713;-71
2022/06/02 06:47:29;;;;;;;;;;;25.50;40.40;;;;;;1505082;77;1195;-69
2022/06/02 06:49:42;;;;;;;;;;;25.50;40.20;;;;;;1473848;78;1456;-72
2022/06/02 06:52:02;;;;;;;;;;;25.50;40.30;;;;;;1453456;80;1924;-71
2022/06/02 06:54:15;;;;;;;;;;;25.50;39.80;;;;;;1500143;78;614;-70
2022/06/02 06:56:18;;;;;;;;;;;25.30;40.10;;;;;;1470582;79;1142;-72
2022/06/02 06:58:25;;;;;;;;;;;25.30;40.10;;;;;;1467081;80;669;-72
2022/06/02 07:00:31;;;;;;;;;;;25.30;40.00;;;;;;1500318;78;1783;-72
2022/06/02 07:02:50;;;;;;;;;;;25.30;40.10;;;;;;1480656;79;1167;-72
2022/06/02 07:05:09;;;;;;;;;;;25.30;39.80;;;;;;1476818;79;754;-72
2022/06/02 07:07:21;;;;;;;;;;;25.20;39.80;;;;;;1467672;79;1147;-73
2022/06/02 07:09:24;;;;;;;;;;;25.10;39.80;;;;;;1488966;79;707;-72
2022/06/02 07:13:54;;;;;;;;;;;25.10;39.80;;;;;;1478624;79;1742;-72
2022/06/02 07:15:57;;;;;;;;;;;25.10;40.00;;;;;;1475535;79;1248;-72
2022/06/02 07:18:01;;;;;;;;;;;25.10;40.20;;;;;;1490595;79;681;-72
2022/06/02 07:20:07;;;;;;;;;;;25.00;40.20;;;;;;1481697;79;722;-71
2022/06/02 07:22:20;;;;;;;;;;;25.10;40.20;;;;;;1474161;79;753;-70
2022/06/02 07:24:40;;;;;;;;;;;25.10;40.30;;;;;;1478768;79;1030;-72
2022/06/02 07:26:46;;;;;;;;;;;25.00;40.20;;;;;;1478314;79;1153;-70
2022/06/02 07:28:56;;;;;;;;;;;25.00;40.20;;;;;;1483070;79;691;-72
2022/06/02 07:31:16;;;;;;;;;;;25.00;40.40;;;;;;1486008;79;1939;-71
2022/06/02 07:33:22;;;;;;;;;;;25.00;40.40;;;;;;1483166;79;709;-69
2022/06/02 07:35:41;;;;;;;;;;;25.00;40.30;;;;;;1478241;79;1149;-68
2022/06/02 07:37:44;;;;;;;;;;;25.00;40.40;;;;;;1481935;79;754;-71
2022/06/02 07:39:50;;;;;;;;;;;24.90;40.30;;;;;;1478723;79;706;-68
2022/06/02 07:42:09;;;;;;;;;;;24.90;40.30;;;;;;1485266;79;1573;-67
2022/06/02 07:44:29;;;;;;;;;;;24.80;40.20;;;;;;1480317;78;1363;-72
2022/06/02 07:46:35;;;;;;;;;;;24.90;40.40;;;;;;1477527;79;1164;-70
2022/06/02 07:48:42;;;;;;;;;;;24.80;40.40;;;;;;1484776;79;661;-69
2022/06/02 07:50:46;;;;;;;;;;;24.80;40.50;;;;;;1488600;79;1946;-68
2022/06/02 07:52:58;;;;;;;;;;;24.80;40.20;;;;;;1476296;79;707;-69
2022/06/02 07:55:20;;;;;;;;;;;24.80;40.50;;;;;;1484208;79;1033;-70
2022/06/02 07:57:39;;;;;;;;;;;24.80;40.50;;;;;;1481271;79;1164;-70
2022/06/02 07:59:42;;;;;;;;;;;24.80;40.50;;;;;;1483404;79;1633;-69
2022/06/02 08:01:50;;;;;;;;;;;24.80;40.60;;;;;;1482655;79;656;-70
2022/06/02 08:03:56;;;;;;;;;;;24.70;40.50;;;;;;1482720;79;654;-71
2022/06/02 08:06:08;;;;;;;;;;;24.70;40.30;;;;;;1487535;79;1203;-69
2022/06/02 08:08:18;;;;;;;;;;;24.60;40.30;;;;;;1476643;79;1330;-70
2022/06/02 08:10:27;;;;;;;;;;;24.60;40.50;;;;;;1491328;79;1532;-70
2022/06/02 08:12:43;;;;;;;;;;;24.60;40.50;;;;;;1497234;79;1925;-69
2022/06/02 08:14:52;;;;;;;;;;;24.60;40.60;;;;;;1470689;79;692;-70
2022/06/02 08:16:56;;;;;;;;;;;24.60;40.60;;;;;;1480220;78;1420;-68
2022/06/02 08:19:02;;;;;;;;;;;24.60;40.60;;;;;;1496441;78;755;-71
2022/06/02 08:21:15;;;;;;;;;;;24.60;40.60;;;;;;1479689;79;697;-70
2022/06/02 08:23:14;;;;;;;;;;;24.60;40.50;;;;;;1470023;79;1035;-72
2022/06/02 08:25:22;;;;;;;;;;;24.60;40.50;;;;;;1476596;79;686;-72
2022/06/02 08:27:30;;;;;;;;;;;24.50;40.50;;;;;;1482287;79;1540;-71
2022/06/02 08:29:33;;;;;;;;;;;24.50;40.50;;;;;;1485199;79;1820;-71
2022/06/02 08:31:53;;;;;;;;;;;24.50;40.60;;;;;;1482888;79;1938;-72
2022/06/02 08:33:57;;;;;;;;;;;24.50;40.70;;;;;;1488680;79;684;-71
2022/06/02 08:36:09;;;;;;;;;;;24.40;40.80;;;;;;1485615;79;1148;-68
2022/06/02 08:38:16;;;;;;;;;;;24.30;40.90;;;;;;1498970;79;793;-71
2022/06/02 08:40:31;;;;;;;;;;;24.30;41.10;;;;;;1489415;79;612;-71
2022/06/02 08:42:41;;;;;;;;;;;24.30;41.10;;;;;;1486455;79;713;-71
2022/06/02 08:44:50;;;;;;;;;;;24.30;41.20;;;;;;1473473;79;992;-74
2022/06/02 08:46:57;;;;;;;;;;;24.40;41.30;;;;;;1468541;79;1473;-73
2022/06/02 08:49:19;;;;;;;;;;;24.40;41.20;;;;;;1468932;79;657;-71
2022/06/02 08:51:22;;;;;;;;;;;24.50;41.20;;;;;;1470410;79;1948;-73
2022/06/02 08:53:42;;;;;;;;;;;24.50;40.70;;;;;;1465811;79;663;-71
2022/06/02 08:55:58;;;;;;;;;;;24.40;41.00;;;;;;1499015;78;1103;-71
2022/06/02 08:58:03;;;;;;;;;;;24.40;41.00;;;;;;1449047;79;1069;-71
2022/06/02 09:00:06;;;;;;;;;;;24.40;41.00;;;;;;1488804;79;1401;-71
2022/06/02 09:02:13;;;;;;;;;;;24.40;41.10;;;;;;1480636;79;941;-71
2022/06/02 09:04:33;;;;;;;;;;;24.40;41.00;;;;;;1485539;79;669;-67
2022/06/02 09:06:53;;;;;;;;;;;24.40;41.00;;;;;;1480602;79;1203;-70
2022/06/02 09:08:59;;;;;;;;;;;24.50;41.10;;;;;;1485846;79;702;-69
2022/06/02 09:11:06;;;;;;;;;;;24.50;41.00;;;;;;1490006;79;1952;-69
2022/06/02 09:13:09;;;;;;;;;;;24.50;41.10;;;;;;1481235;79;1012;-69
2022/06/02 09:15:19;;;;;;;;;;;24.40;41.00;;;;;;1486300;79;724;-70
2022/06/02 09:17:22;;;;;;;;;;;24.60;41.00;;;;;;1477388;79;1131;-72
2022/06/02 09:19:34;;;;;;;;;;;24.50;41.00;;;;;;1496333;79;768;-70
2022/06/02 09:21:54;;;;;;;;;;;24.60;41.00;;;;;;1479381;79;675;-69
2022/06/02 09:24:14;;;;;;;;;;;24.60;41.00;;;;;;1491884;79;677;-70
2022/06/02 09:26:27;;;;;;;;;;;24.60;41.10;;;;;;1482829;78;1144;-71
2022/06/02 09:28:43;;;;;;;;;;;24.70;41.20;;;;;;1482240;79;1477;-70
2022/06/02 09:30:46;;;;;;;;;;;24.70;41.30;;;;;;1482470;79;647;-70
2022/06/02 09:33:33;;;;;;;;;;;24.70;41.30;;;;;;1486450;79;1975;-70
2022/06/02 09:35:13;;;;;;;;;;;24.60;41.00;;;;;;1478366;79;944;-70
2022/06/02 09:37:35;;;;;;;;;;;24.60;41.00;;;;;;1490105;78;1079;-70
2022/06/02 09:39:55;;;;;;;;;;;24.70;41.10;;;;;;1488283;79;673;-70
2022/06/02 09:41:58;;;;;;;;;;;24.70;41.10;;;;;;1478860;79;746;-69
2022/06/02 09:44:02;;;;;;;;;;;24.70;41.10;;;;;;1484808;79;695;-69
2022/06/02 09:46:12;;;;;;;;;;;24.60;41.10;;;;;;1482508;79;1164;-69
2022/06/02 09:48:28;;;;;;;;;;;24.70;41.20;;;;;;1489886;78;1024;-70
2022/06/02 09:50:35;;;;;;;;;;;24.70;41.20;;;;;;1489176;79;668;-69
2022/06/02 09:52:38;;;;;;;;;;;24.80;41.30;;;;;;1486379;78;1935;-70
2022/06/02 09:54:44;;;;;;;;;;;24.70;41.30;;;;;;1490143;79;745;-70
2022/06/02 09:56:51;;;;;;;;;;;24.80;41.30;;;;;;1488313;79;1173;-70
2022/06/02 09:58:55;;;;;;;;;;;24.80;41.30;;;;;;1488806;79;707;-69
2022/06/02 10:00:58;;;;;;;;;;;24.80;41.10;;;;;;1481694;79;767;-71
2022/06/02 10:03:13;;;;;;;;;;;24.80;41.10;;;;;;1487069;79;724;-70
2022/06/02 10:05:20;;;;;;;;;;;24.70;41.20;;;;;;1476362;79;704;-71
2022/06/02 10:07:39;;;;;;;;;;;24.70;41.20;;;;;;1476081;79;1127;-70
2022/06/02 10:09:58;;;;;;;;;;;24.80;41.30;;;;;;1490685;79;772;-72
2022/06/02 10:14:49;;;;;;;;;;;24.70;41.30;;;;;;1488808;79;620;-75
2022/06/02 10:17:09;;;;;;;;;;;24.80;41.30;;;;;;1487144;78;1179;-71
2022/06/02 10:19:12;;;;;;;;;;;24.70;41.30;;;;;;1485087;79;765;-70
2022/06/02 10:21:24;;;;;;;;;;;24.80;41.30;;;;;;1482595;79;1630;-70
2022/06/02 10:23:34;;;;;;;;;;;24.80;41.30;;;;;;1490658;79;710;-70
2022/06/02 10:25:50;;;;;;;;;;;24.80;41.30;;;;;;1487517;78;1285;-70
2022/06/02 10:27:53;;;;;;;;;;;24.80;41.20;;;;;;1484146;79;665;-69
2022/06/02 10:30:15;;;;;;;;;;;24.80;41.30;;;;;;1484895;79;719;-70
2022/06/02 10:32:21;;;;;;;;;;;24.70;41.30;;;;;;1484704;79;1926;-71
2022/06/02 10:34:42;;;;;;;;;;;24.70;41.30;;;;;;1487200;79;675;-70
2022/06/02 10:37:02;;;;;;;;;;;24.80;41.30;;;;;;1488868;79;1141;-72
2022/06/02 10:39:22;;;;;;;;;;;24.80;41.30;;;;;;1496781;79;775;-72
2022/06/02 10:41:31;;;;;;;;;;;24.80;41.30;;;;;;1489973;79;697;-73
2022/06/02 10:43:51;;;;;;;;;;;24.80;41.30;;;;;;1484805;79;682;-71
2022/06/02 10:45:56;;;;;;;;;;;24.80;41.30;;;;;;1492186;78;1177;-72
2022/06/02 10:48:14;;;;;;;;;;;24.80;41.30;;;;;;1488020;79;696;-72
2022/06/02 10:50:21;;;;;;;;;;;24.80;41.30;;;;;;1485280;79;698;-71
2022/06/02 10:52:33;;;;;;;;;;;24.80;41.20;;;;;;1485975;79;1962;-71
2022/06/02 10:54:43;;;;;;;;;;;24.80;41.20;;;;;;1483017;78;1398;-71
2022/06/02 10:56:46;;;;;;;;;;;24.90;41.30;;;;;;1490682;78;1174;-71
2022/06/02 10:58:56;;;;;;;;;;;24.80;41.30;;;;;;1485731;79;633;-74
2022/06/02 11:01:18;;;;;;;;;;;24.80;41.30;;;;;;1493422;79;693;-66
2022/06/02 11:03:24;;;;;;;;;;;24.80;41.30;;;;;;1481681;78;1755;-71
2022/06/02 11:05:40;;;;;;;;;;;24.80;41.30;;;;;;1482082;79;1157;-72
2022/06/02 11:08:00;;;;;;;;;;;24.90;41.30;;;;;;1469185;79;1705;-70
2022/06/02 11:10:03;;;;;;;;;;;24.80;41.30;;;;;;1479035;79;645;-71
2022/06/02 11:12:07;;;;;;;;;;;24.80;41.30;;;;;;1492052;79;1932;-69
2022/06/02 11:14:27;;;;;;;;;;;24.80;41.20;;;;;;1485656;79;706;-69
2022/06/02 11:16:33;;;;;;;;;;;24.80;41.20;;;;;;1495155;79;1145;-71
2022/06/02 11:18:39;;;;;;;;;;;24.80;41.30;;;;;;1492700;79;1883;-71
2022/06/02 11:20:43;;;;;;;;;;;24.80;41.20;;;;;;1478855;79;1475;-70
2022/06/02 11:22:59;;;;;;;;;;;24.80;41.20;;;;;;1482564;79;673;-73
2022/06/02 11:25:14;;;;;;;;;;;24.70;41.20;;;;;;1423542;79;1052;-73
2022/06/02 11:27:27;;;;;;;;;;;24.80;41.30;;;;;;1475349;79;1117;-71
2022/06/02 11:29:36;;;;;;;;;;;24.70;41.30;;;;;;1481054;79;740;-72
2022/06/02 11:31:39;;;;;;;;;;;24.70;41.20;;;;;;1480972;79;1943;-70
2022/06/02 11:33:46;;;;;;;;;;;24.70;41.30;;;;;;1481281;79;684;-70
2022/06/02 11:35:58;;;;;;;;;;;24.70;41.30;;;;;;1481660;78;1182;-72
2022/06/02 11:38:07;;;;;;;;;;;24.70;41.40;;;;;;1478389;79;667;-71
2022/06/02 11:40:14;;;;;;;;;;;24.60;41.40;;;;;;1485871;79;2107;-69
2022/06/02 11:42:17;;;;;;;;;;;24.50;41.30;;;;;;1473382;79;601;-68
2022/06/02 11:44:37;;;;;;;;;;;24.50;41.30;;;;;;1484053;79;696;-70
2022/06/02 11:46:44;;;;;;;;;;;24.50;41.50;;;;;;1473898;79;1172;-71
2022/06/02 11:48:58;;;;;;;;;;;24.40;41.80;;;;;;1482227;79;696;-72
2022/06/02 11:51:04;;;;;;;;;;;24.40;41.80;;;;;;1478533;79;712;-72
2022/06/02 11:53:14;;;;;;;;;;;24.40;41.80;;;;;;1480364;79;1935;-73
2022/06/02 11:55:18;;;;;;;;;;;24.30;41.70;;;;;;1472238;79;1765;-68
2022/06/02 11:57:38;;;;;;;;;;;24.30;41.70;;;;;;1479258;79;1143;-69
2022/06/02 12:00:00;;;;;;;;;;;24.30;41.70;;;;;;1481215;79;750;-73
2022/06/02 12:02:15;;;;;;;;;;;24.30;41.80;;;;;;1480530;79;670;-73
2022/06/02 12:04:35;;;;;;;;;;;24.30;41.80;;;;;;1473114;79;674;-73
2022/06/02 12:06:55;;;;;;;;;;;24.30;41.90;;;;;;1475576;79;1125;-72
2022/06/02 12:09:06;;;;;;;;;;;24.20;41.80;;;;;;1462759;79;748;-73
2022/06/02 12:11:28;;;;;;;;;;;24.30;42.10;;;;;;1480811;79;927;-72
2022/06/02 12:13:48;;;;;;;;;;;24.30;42.00;;;;;;1488358;79;1936;-72
2022/06/02 12:16:06;;;;;;;;;;;24.30;41.90;;;;;;1470153;79;1228;-72
2022/06/02 12:18:16;;;;;;;;;;;24.30;41.80;;;;;;1487762;79;1600;-73
2022/06/02 12:20:19;;;;;;;;;;;24.30;42.00;;;;;;1479290;79;662;-72
2022/06/02 12:22:28;;;;;;;;;;;24.20;41.80;;;;;;1433904;79;1119;-73
2022/06/02 12:24:35;;;;;;;;;;;24.30;41.80;;;;;;1481839;79;684;-72
2022/06/02 12:26:41;;;;;;;;;;;24.30;41.80;;;;;;1477126;79;1148;-73
2022/06/02 12:29:01;;;;;;;;;;;24.30;41.70;;;;;;1479990;79;971;-72
2022/06/02 12:31:16;;;;;;;;;;;24.20;41.70;;;;;;1480590;79;712;-73
2022/06/02 12:33:25;;;;;;;;;;;24.20;41.80;;;;;;1481633;79;1949;-69
2022/06/02 12:35:35;;;;;;;;;;;24.20;41.70;;;;;;1478428;79;1242;-72
2022/06/02 12:37:55;;;;;;;;;;;24.20;41.70;;;;;;1547285;71;230794;-66
2022/06/02 12:39:58;;;;;;;;;;;24.20;41.80;;;;;;1628334;73;778;-67
2022/06/02 12:42:20;;;;;;;;;;;24.30;42.10;;;;;;1628608;71;751;-67
2022/06/02 12:44:24;;;;;;;;;;;24.20;41.90;;;;;;1628066;72;2020;-67
2022/06/02 12:46:36;;;;;;;;;;;24.20;41.90;;;;;;1634969;71;761;-67
2022/06/02 12:48:41;;;;;;;;;;;24.20;42.00;;;;;;1605414;73;1680;-67
2022/06/02 12:50:44;;;;;;;;;;;24.20;42.10;;;;;;1599829;73;1137;-67
2022/06/02 12:52:57;;;;;;;;;;;24.20;42.10;;;;;;1600761;73;1929;-65
2022/06/02 12:55:19;;;;;;;;;;;24.20;42.30;;;;;;1597797;74;735;-66
2022/06/02 12:57:37;;;;;;;;;;;24.20;42.00;;;;;;1585693;74;1235;-67
2022/06/02 12:59:56;;;;;;;;;;;24.20;42.10;;;;;;1606647;73;666;-67
2022/06/02 13:02:11;;;;;;;;;;;24.20;42.10;;;;;;1587532;74;810;-67
2022/06/02 13:04:15;;;;;;;;;;;24.30;42.20;;;;;;1587714;73;670;-67
2022/06/02 13:06:30;;;;;;;;;;;24.30;42.10;;;;;;1591154;73;737;-67
2022/06/02 13:08:33;;;;;;;;;;;24.20;42.00;;;;;;1598954;73;1115;-67
2022/06/02 13:10:40;;;;;;;;;;;24.20;42.10;;;;;;1605206;73;1060;-67